Time;durP1;ratioP1;P1;durP2;ratioP2;P2;SDS_P1;SDS_P2;PMS_P1;PMS_P2;Temp;Humidity;BMP_temperature;BMP_pressure;BME280_temperature;BME280_humidity;BME280_pressure;Samples;Min_cycle;Max_cycle;Signal;HPM_P1;HPM_P2
2021/05/21 00:01:04;;;;;;;2.83;2.65;;;9.70;99.90;;;10.60;79.60;97807.94;5185845;28;20690;-66
2021/05/21 00:03:36;;;;;;;3.10;2.90;;;9.70;99.90;;;10.53;78.47;97809.28;5183981;28;20230;-66
2021/05/21 00:06:09;;;;;;;2.83;2.65;;;9.70;99.90;;;10.56;78.77;97799.25;5184340;28;20197;-65
2021/05/21 00:08:43;;;;;;;3.50;3.20;;;9.60;99.90;;;10.66;78.89;97805.72;5184312;28;20203;-67
2021/05/21 00:11:15;;;;;;;2.67;2.57;;;9.70;99.90;;;10.47;79.38;97796.19;5179299;28;20305;-66
2021/05/21 00:13:48;;;;;;;3.20;2.90;;;9.60;99.90;;;10.49;79.47;97798.81;5179612;28;20287;-64
2021/05/21 00:16:21;;;;;;;2.92;2.72;;;9.60;99.90;;;10.51;79.00;97794.66;5184664;28;20297;-64
2021/05/21 00:18:53;;;;;;;2.92;2.80;;;9.60;99.90;;;10.53;78.70;97790.50;5184003;28;20654;-64
2021/05/21 00:21:26;;;;;;;3.10;2.92;;;9.70;99.90;;;10.49;78.42;97794.56;5177360;28;20321;-64
2021/05/21 00:23:59;;;;;;;3.28;3.08;;;9.60;99.90;;;10.48;78.95;97785.16;5182984;28;20717;-66
2021/05/21 00:26:32;;;;;;;3.20;3.00;;;9.60;99.90;;;10.36;78.30;97785.34;5183594;28;20240;-66
2021/05/21 00:29:06;;;;;;;3.17;2.90;;;9.50;99.90;;;10.34;78.09;97780.94;5184157;28;20705;-64
2021/05/21 00:31:39;;;;;;;3.00;2.90;;;9.50;99.90;;;10.27;77.91;97782.28;5183535;28;20313;-66
2021/05/21 00:34:11;;;;;;;2.72;2.58;;;9.40;99.90;;;10.27;79.29;97773.72;5184077;28;20225;-65
2021/05/21 00:36:44;;;;;;;3.28;3.10;;;9.40;99.90;;;10.27;78.83;97769.50;5184197;28;20205;-67
2021/05/21 00:39:18;;;;;;;3.15;2.90;;;9.50;99.90;;;10.18;78.86;97765.50;5183900;28;20265;-64
2021/05/21 00:41:50;;;;;;;2.90;2.70;;;9.30;99.90;;;10.21;79.41;97763.13;5182838;28;20264;-65
2021/05/21 00:44:23;;;;;;;3.28;3.08;;;9.30;99.90;;;10.25;80.46;97758.28;5183690;28;20286;-65
2021/05/21 00:46:56;;;;;;;3.45;3.25;;;9.40;99.90;;;10.29;80.54;97760.22;5164681;28;20649;-62
2021/05/21 00:49:28;;;;;;;2.88;2.78;;;9.40;99.90;;;10.33;80.51;97756.16;5173728;28;20203;-65
2021/05/21 00:52:03;;;;;;;3.30;3.10;;;9.50;99.90;;;10.40;79.60;97739.53;5176662;28;20799;-65
2021/05/21 00:54:37;;;;;;;3.20;3.05;;;9.40;99.90;;;10.35;79.93;97722.25;5174696;28;20289;-61
2021/05/21 00:57:10;;;;;;;3.40;3.20;;;9.40;99.90;;;10.26;80.29;97716.59;5187095;28;20273;-63
2021/05/21 00:59:42;;;;;;;2.90;2.70;;;9.40;99.90;;;10.23;80.01;97726.66;5186005;28;20370;-65
2021/05/21 01:02:16;;;;;;;3.03;2.93;;;9.40;99.90;;;10.20;80.19;97735.81;5187679;28;20229;-63
2021/05/21 01:04:50;;;;;;;3.05;2.88;;;9.40;99.90;;;10.21;80.07;97727.34;5187513;28;20213;-65
2021/05/21 01:07:22;;;;;;;3.03;2.83;;;9.40;99.90;;;10.20;79.88;97707.72;5187339;28;20194;-65
2021/05/21 01:09:56;;;;;;;3.50;3.30;;;9.30;99.90;;;10.10;79.84;97725.09;5186413;28;20199;-63
2021/05/21 01:12:29;;;;;;;2.93;2.73;;;9.30;99.90;;;10.03;79.57;97711.88;5186654;28;20667;-65
2021/05/21 01:15:01;;;;;;;3.30;3.10;;;9.20;99.90;;;10.06;79.80;97712.06;5186226;28;20682;-66
2021/05/21 01:17:34;;;;;;;2.80;2.60;;;9.30;99.90;;;10.11;79.81;97711.53;5187164;28;20285;-63
2021/05/21 01:20:09;;;;;;;4.35;3.20;;;9.30;99.90;;;10.19;80.18;97688.97;5185816;28;20233;-65
2021/05/21 01:22:42;;;;;;;2.83;2.72;;;9.30;99.90;;;10.09;79.12;97671.38;5180455;28;20654;-66
2021/05/21 01:25:15;;;;;;;3.00;2.90;;;9.10;99.90;;;10.04;79.93;97688.09;5180809;28;20290;-63
2021/05/21 01:27:48;;;;;;;3.20;3.00;;;9.10;99.90;;;9.97;80.40;97696.22;5187063;28;20194;-63
2021/05/21 01:30:21;;;;;;;3.67;3.37;;;9.10;99.90;;;9.94;80.50;97689.25;5186165;28;20202;-66
2021/05/21 01:32:55;;;;;;;3.20;3.00;;;9.00;99.90;;;9.93;80.38;97673.06;5186499;28;20297;-66
2021/05/21 01:35:28;;;;;;;2.90;2.80;;;9.00;99.90;;;9.95;80.97;97654.41;5186819;28;20198;-63
2021/05/21 01:38:02;;;;;;;3.00;2.90;;;9.00;99.90;;;9.83;81.51;97664.81;5186573;28;20233;-65
2021/05/21 01:40:36;;;;;;;2.70;2.60;;;9.00;99.90;;;9.80;80.84;97662.97;5184833;28;20313;-66
2021/05/21 01:43:09;;;;;;;3.67;3.40;;;9.00;99.90;;;9.80;80.93;97678.25;5187316;28;20682;-63
2021/05/21 01:45:42;;;;;;;3.13;2.97;;;9.00;99.90;;;9.85;81.41;97659.00;5177496;28;20199;-62
2021/05/21 01:48:15;;;;;;;3.33;3.13;;;9.10;99.90;;;9.90;82.33;97670.34;5182063;28;20294;-66
2021/05/21 01:50:47;;;;;;;3.30;3.00;;;9.10;99.90;;;9.98;81.73;97657.13;5183709;28;20694;-63
2021/05/21 01:53:21;;;;;;;3.37;3.17;;;9.10;99.90;;;9.97;81.50;97650.28;5166408;28;20290;-63
2021/05/21 01:55:53;;;;;;;3.07;2.87;;;9.10;99.90;;;9.89;81.10;97653.25;5180002;28;20297;-66
2021/05/21 01:58:26;;;;;;;3.10;2.90;;;9.00;99.90;;;9.84;82.21;97669.09;5186216;28;20301;-63
2021/05/21 02:00:58;;;;;;;2.93;2.70;;;9.00;99.90;;;9.95;80.75;97662.06;5184453;28;20233;-63
2021/05/21 02:03:32;;;;;;;3.20;3.00;;;9.00;99.90;;;9.85;81.89;97656.44;5179179;28;20290;-65
2021/05/21 02:06:05;;;;;;;3.10;2.90;;;9.00;99.90;;;9.93;81.80;97659.44;5185684;28;20234;-63
2021/05/21 02:08:38;;;;;;;2.97;2.80;;;9.00;99.90;;;9.89;81.64;97642.16;5185985;28;20290;-66
2021/05/21 02:11:11;;;;;;;3.30;3.10;;;9.00;99.90;;;9.80;80.96;97642.53;5184426;28;20698;-66
2021/05/21 02:13:43;;;;;;;3.13;2.93;;;8.90;99.90;;;9.78;82.10;97641.56;5186294;28;20273;-63
2021/05/21 02:16:16;;;;;;;3.00;2.80;;;9.00;99.90;;;9.70;81.63;97632.63;5185344;28;20289;-64
2021/05/21 02:18:48;;;;;;;3.30;3.10;;;8.90;99.90;;;9.93;80.43;97629.69;5177489;28;20302;-67
2021/05/21 02:21:21;;;;;;;3.27;3.10;;;9.00;99.90;;;9.80;81.88;97634.88;5179457;28;20663;-65
2021/05/21 02:23:54;;;;;;;3.20;2.90;;;8.90;99.90;;;9.75;81.16;97626.06;5180238;28;20195;-65
2021/05/21 02:26:27;;;;;;;3.17;2.97;;;8.80;99.90;;;9.53;82.32;97621.44;5185516;28;20675;-65
2021/05/21 02:28:59;;;;;;;3.33;3.13;;;8.70;99.90;;;9.52;83.45;97624.78;5185321;28;20302;-64
2021/05/21 02:31:32;;;;;;;3.33;3.13;;;8.80;99.90;;;9.48;83.59;97622.84;5185324;28;20306;-65
2021/05/21 02:34:05;;;;;;;3.07;2.80;;;8.70;99.90;;;9.56;82.99;97623.31;5185914;28;20195;-65
2021/05/21 02:36:37;;;;;;;3.20;3.10;;;8.70;99.90;;;9.80;81.55;97611.91;5185787;28;20249;-65
2021/05/21 02:39:11;;;;;;;3.37;3.07;;;8.90;99.90;;;9.70;82.46;97610.53;5185026;28;20657;-64
2021/05/21 02:41:43;;;;;;;3.03;2.83;;;8.80;99.90;;;9.58;81.79;97608.94;5185006;28;20221;-64
2021/05/21 02:44:16;;;;;;;3.10;2.90;;;8.70;99.90;;;9.48;82.73;97607.53;5185380;28;20198;-65
2021/05/21 02:46:49;;;;;;;2.90;2.80;;;8.70;99.90;;;9.46;82.94;97612.53;5185627;28;20233;-65
2021/05/21 02:49:21;;;;;;;3.03;2.83;;;8.70;99.90;;;9.50;83.53;97597.41;5184201;28;20294;-64
2021/05/21 02:51:54;;;;;;;2.97;2.77;;;8.70;99.90;;;9.52;82.64;97595.84;5183148;28;20759;-65
2021/05/21 02:54:27;;;;;;;2.93;2.83;;;8.70;99.90;;;9.60;82.59;97600.56;5185063;28;20195;-64
2021/05/21 02:57:00;;;;;;;3.00;2.90;;;8.70;99.90;;;9.46;82.66;97598.91;5185666;28;20301;-64
2021/05/21 02:59:32;;;;;;;3.23;3.00;;;8.60;99.90;;;9.47;82.87;97593.91;5184451;28;20568;-65
2021/05/21 03:02:05;;;;;;;3.30;3.00;;;8.60;99.90;;;9.49;83.30;97588.88;5185137;28;20321;-65
2021/05/21 03:04:37;;;;;;;3.00;2.90;;;8.60;99.90;;;9.41;83.21;97585.91;5185283;28;20233;-65
2021/05/21 03:07:10;;;;;;;3.23;3.03;;;8.70;99.90;;;9.39;83.65;97586.63;5184873;28;20297;-67
2021/05/21 03:09:43;;;;;;;2.97;2.77;;;8.60;99.90;;;9.50;83.27;97577.00;5184203;28;20293;-64
2021/05/21 03:12:16;;;;;;;3.20;3.00;;;8.60;99.90;;;9.45;83.13;97582.75;5184669;28;20832;-64
2021/05/21 03:14:49;;;;;;;3.07;2.97;;;8.70;99.90;;;9.54;83.25;97566.19;5185208;28;20249;-65
2021/05/21 03:17:22;;;;;;;3.03;2.93;;;8.70;99.90;;;9.45;82.48;97577.63;5183957;28;20927;-65
2021/05/21 03:19:54;;;;;;;2.90;2.80;;;8.60;99.90;;;9.36;82.80;97579.66;5184640;28;20246;-65
2021/05/21 03:22:27;;;;;;;2.93;2.73;;;8.50;99.90;;;9.44;82.75;97577.53;5183249;28;20317;-65
2021/05/21 03:25:03;;;;;;;2.87;2.77;;;8.60;99.90;;;9.34;83.31;97568.50;5184277;28;20194;-65
2021/05/21 03:27:35;;;;;;;3.20;3.00;;;8.50;99.90;;;9.30;83.65;97571.69;5183480;28;20233;-64
2021/05/21 03:30:11;;;;;;;2.77;2.57;;;8.50;99.90;;;9.31;84.55;97562.34;5182656;28;20264;-67
2021/05/21 03:32:43;;;;;;;3.07;2.83;;;8.50;99.90;;;9.28;83.93;97555.41;5184799;28;20578;-64
2021/05/21 03:35:16;;;;;;;3.20;3.00;;;8.50;99.90;;;9.25;83.69;97557.78;5184793;28;20203;-64
2021/05/21 03:37:48;;;;;;;2.93;2.83;;;8.50;99.90;;;9.29;83.75;97548.63;5183485;28;20680;-66
2021/05/21 03:40:22;;;;;;;2.83;2.73;;;8.50;99.90;;;9.28;84.02;97546.88;5183980;28;20301;-66
2021/05/21 03:42:54;;;;;;;3.00;2.90;;;8.50;99.90;;;9.31;84.04;97542.81;5184451;28;20291;-67
2021/05/21 03:45:27;;;;;;;2.80;2.70;;;8.50;99.90;;;9.36;83.81;97545.66;5184797;28;20961;-67
2021/05/21 03:48:00;;;;;;;3.20;2.90;;;8.60;99.90;;;9.40;83.93;97542.47;5180158;28;20198;-66
2021/05/21 03:50:33;;;;;;;2.93;2.73;;;8.60;99.90;;;9.42;84.03;97545.97;5183504;28;20211;-66
2021/05/21 03:53:05;;;;;;;2.73;2.57;;;8.60;99.90;;;9.44;83.72;97545.28;5181775;28;20197;-67
2021/05/21 03:55:39;;;;;;;3.17;2.87;;;8.60;99.90;;;9.50;83.49;97551.50;5183623;28;20249;-66
2021/05/21 03:58:12;;;;;;;2.90;2.70;;;8.70;99.90;;;9.48;83.93;97538.66;5184358;28;20297;-66
2021/05/21 04:00:44;;;;;;;3.30;3.10;;;8.70;99.90;;;9.49;83.10;97537.88;5183270;28;20225;-65
2021/05/21 04:03:17;;;;;;;2.97;2.77;;;8.70;99.90;;;9.52;83.53;97539.72;5184642;28;20229;-65
2021/05/21 04:05:49;;;;;;;2.87;2.77;;;8.70;99.90;;;9.49;82.64;97535.31;5183962;28;20289;-64
2021/05/21 04:08:22;;;;;;;3.00;2.80;;;8.70;99.90;;;9.53;83.39;97538.91;5184467;28;20293;-67
2021/05/21 04:10:56;;;;;;;2.57;2.37;;;8.70;99.90;;;9.47;83.05;97542.91;5180477;28;20301;-66
2021/05/21 04:13:28;;;;;;;2.30;2.20;;;8.60;99.90;;;9.46;82.39;97537.69;5172647;28;20293;-66
2021/05/21 04:16:01;;;;;;;2.77;2.67;;;8.60;99.90;;;9.50;82.51;97546.38;5184409;28;20297;-66
2021/05/21 04:18:33;;;;;;;2.77;2.57;;;8.60;99.90;;;9.46;82.50;97542.78;5184063;28;20206;-66
2021/05/21 04:21:06;;;;;;;2.77;2.57;;;8.60;99.90;;;9.45;81.93;97536.81;5180549;28;20226;-65
2021/05/21 04:23:40;;;;;;;2.70;2.60;;;8.60;99.90;;;9.48;83.10;97531.88;5179747;28;20198;-65
2021/05/21 04:26:13;;;;;;;2.50;2.40;;;8.60;99.90;;;9.52;82.46;97529.50;5188119;28;20579;-66
2021/05/21 04:28:47;;;;;;;3.30;3.10;;;8.70;99.90;;;9.55;82.53;97527.13;5188316;28;20201;-66
2021/05/21 04:31:20;;;;;;;3.07;2.97;;;8.70;99.90;;;9.44;82.18;97519.78;5184348;28;20220;-66
2021/05/21 04:33:53;;;;;;;3.40;3.20;;;8.70;99.90;;;9.44;82.48;97516.31;5184928;28;20209;-65
2021/05/21 04:36:25;;;;;;;3.20;3.00;;;8.70;99.90;;;9.44;83.14;97512.13;5188405;28;20309;-66
2021/05/21 04:38:58;;;;;;;3.17;2.97;;;8.70;99.90;;;9.52;82.81;97511.66;5188053;28;20191;-65
2021/05/21 04:41:32;;;;;;;3.00;2.73;;;8.80;99.90;;;9.59;82.60;97509.53;5183995;28;20218;-65
2021/05/21 04:44:04;;;;;;;2.90;2.70;;;8.70;99.90;;;9.63;81.94;97502.91;5177996;28;20642;-65
2021/05/21 04:46:37;;;;;;;2.90;2.70;;;8.70;99.90;;;9.65;81.85;97509.88;5188126;28;20550;-65
2021/05/21 04:49:09;;;;;;;3.03;2.83;;;8.80;99.90;;;9.71;82.81;97506.75;5187042;28;20281;-66
2021/05/21 04:51:42;;;;;;;2.97;2.77;;;8.90;99.90;;;9.84;82.52;97506.66;5184894;28;20248;-65
2021/05/21 04:54:14;;;;;;;2.67;2.57;;;9.10;99.90;;;9.95;82.30;97504.66;5188329;28;20232;-62
2021/05/21 04:56:48;;;;;;;3.10;2.80;;;9.20;99.90;;;10.10;81.02;97504.56;5187187;28;20230;-63
2021/05/21 04:59:21;;;;;;;3.15;2.90;;;9.30;99.90;;;10.29;81.05;97497.13;5193232;28;20322;-59
2021/05/21 05:01:53;;;;;;;2.97;2.70;;;9.40;99.90;;;10.25;80.55;97500.31;5170780;28;20227;-63
2021/05/21 05:04:26;;;;;;;3.07;2.87;;;9.40;99.90;;;10.09;81.45;97490.94;5181832;28;20282;-62
2021/05/21 05:06:59;;;;;;;2.90;2.70;;;9.30;99.90;;;10.19;81.27;97496.53;5187283;28;20222;-65
2021/05/21 05:09:31;;;;;;;3.00;2.80;;;9.30;99.90;;;10.24;80.02;97490.84;5177683;28;20195;-64
2021/05/21 05:12:06;;;;;;;2.83;2.63;;;9.30;99.90;;;10.30;80.94;97483.56;5173249;28;20397;-64
2021/05/21 05:14:39;;;;;;;2.77;2.67;;;9.40;99.90;;;10.33;80.82;97480.28;5182421;28;20318;-65
2021/05/21 05:17:11;;;;;;;2.92;2.78;;;9.50;99.90;;;10.41;81.93;97467.91;5182095;28;20290;-64
2021/05/21 05:19:44;;;;;;;2.92;2.80;;;9.60;99.90;;;10.53;81.17;97465.97;5181188;28;20662;-64
2021/05/21 05:22:16;;;;;;;2.93;2.83;;;9.70;99.90;;;10.64;80.79;97461.41;5179560;28;20325;-66
2021/05/21 05:24:49;;;;;;;3.22;3.00;;;9.80;99.90;;;10.81;79.82;97466.53;5175735;28;20194;-63
2021/05/21 05:27:22;;;;;;;3.40;2.85;;;9.90;99.90;;;10.90;79.47;97461.03;5174596;28;20205;-64
2021/05/21 05:29:55;;;;;;;3.78;3.47;;;10.00;99.90;;;10.98;79.38;97456.28;5185084;28;20195;-64
2021/05/21 05:32:27;;;;;;;3.55;3.33;;;10.00;99.90;;;10.90;78.83;97458.47;5176079;28;20246;-65
2021/05/21 05:35:01;;;;;;;4.15;3.30;;;10.00;99.90;;;10.95;79.81;97449.34;5174461;28;20226;-63
2021/05/21 05:37:33;;;;;;;3.85;3.58;;;10.10;99.90;;;11.23;77.87;97441.31;5186001;28;20286;-66
2021/05/21 05:40:07;;;;;;;3.20;3.00;;;10.20;99.90;;;11.20;77.33;97442.84;5170379;28;20297;-66
2021/05/21 05:42:45;;;;;;;3.03;2.83;;;10.20;99.90;;;11.33;76.69;97434.06;5176303;28;20265;-66
2021/05/21 05:45:18;;;;;;;3.05;2.85;;;10.40;99.90;;;11.37;77.06;97438.53;5183566;28;20294;-66
2021/05/21 05:47:51;;;;;;;2.92;2.72;;;10.40;99.90;;;11.44;76.60;97432.88;5169775;28;20731;-66
2021/05/21 05:50:23;;;;;;;3.33;3.00;;;10.50;99.90;;;11.43;76.59;97421.78;5166336;28;20628;-66
2021/05/21 05:52:56;;;;;;;2.90;2.70;;;10.50;99.90;;;11.53;76.50;97432.44;5179010;28;20290;-65
2021/05/21 05:55:29;;;;;;;3.50;3.20;;;10.60;99.90;;;11.68;75.90;97428.91;5186877;28;20261;-66
2021/05/21 05:58:02;;;;;;;3.10;2.88;;;10.60;99.90;;;11.81;76.39;97419.22;5186277;28;20194;-65
2021/05/21 06:00:35;;;;;;;2.78;2.58;;;10.80;99.90;;;11.91;75.32;97418.88;5186414;28;20313;-65
2021/05/21 06:03:10;;;;;;;2.90;2.70;;;10.90;99.90;;;12.01;75.34;97422.69;5186765;28;20670;-65
2021/05/21 06:05:42;;;;;;;2.60;2.50;;;11.00;99.90;;;12.00;74.87;97416.72;5187058;28;20628;-65
2021/05/21 06:08:15;;;;;;;3.10;2.95;;;11.00;99.90;;;12.12;74.97;97419.78;5178619;28;20425;-65
2021/05/21 06:10:48;;;;;;;2.67;2.58;;;11.10;99.90;;;12.25;74.17;97410.09;5184284;28;20898;-65
2021/05/21 06:13:25;;;;;;;3.10;2.90;;;11.20;99.90;;;12.26;74.48;97415.28;5185369;28;20237;-65
2021/05/21 06:15:57;;;;;;;3.08;2.80;;;11.20;99.90;;;12.34;74.86;97410.50;5180751;28;20252;-65
2021/05/21 06:18:30;;;;;;;2.67;2.47;;;11.40;99.90;;;12.39;74.55;97406.44;5181383;28;20199;-65
2021/05/21 06:21:02;;;;;;;2.92;2.72;;;11.40;99.90;;;12.42;75.67;97410.78;5175114;28;20306;-66
2021/05/21 06:23:35;;;;;;;3.40;3.05;;;11.50;99.90;;;12.53;75.31;97405.34;5182004;28;20206;-66
2021/05/21 06:26:14;;;;;;;3.15;2.95;;;11.60;99.90;;;12.55;74.98;97396.00;5181191;28;20233;-65
2021/05/21 06:28:48;;;;;;;3.33;3.13;;;11.60;99.90;;;12.67;73.99;97405.03;5182688;28;20206;-66
2021/05/21 06:31:21;;;;;;;3.38;3.08;;;11.70;99.90;;;12.70;74.24;97405.13;5177885;28;20320;-65
2021/05/21 06:33:54;;;;;;;3.22;3.03;;;11.80;99.90;;;12.72;74.28;97401.84;5184369;28;20206;-66
2021/05/21 06:36:26;;;;;;;2.83;2.63;;;11.80;99.90;;;12.74;73.75;97399.34;5182662;28;20202;-65
2021/05/21 06:38:59;;;;;;;3.00;2.75;;;11.80;99.90;;;12.80;73.50;97399.59;5177779;28;20195;-65
2021/05/21 06:41:32;;;;;;;3.63;2.90;;;11.80;99.90;;;12.93;73.28;97394.13;5181356;28;20226;-65
2021/05/21 06:44:06;;;;;;;3.40;3.10;;;11.90;99.90;;;13.04;73.00;97395.44;5178978;28;20234;-65
2021/05/21 06:46:38;;;;;;;3.40;3.20;;;12.10;99.90;;;13.12;73.42;97387.19;5184486;28;20230;-65
2021/05/21 06:49:14;;;;;;;3.17;2.90;;;12.20;99.90;;;13.18;71.95;97388.28;5184738;28;20214;-65
2021/05/21 06:51:47;;;;;;;3.20;2.90;;;12.20;99.90;;;13.23;72.69;97386.78;5181331;28;20677;-65
2021/05/21 06:54:19;;;;;;;3.10;2.90;;;12.30;99.90;;;13.31;72.44;97384.56;5178317;28;20669;-65
2021/05/21 06:56:52;;;;;;;3.63;3.30;;;12.40;99.90;;;13.37;72.68;97383.91;5184738;28;20701;-65
2021/05/21 06:59:25;;;;;;;3.53;3.22;;;12.40;99.90;;;13.52;71.68;97379.34;5180078;28;20202;-65
2021/05/21 07:01:58;;;;;;;3.03;2.70;;;12.60;99.90;;;13.61;72.67;97371.97;5184123;28;20232;-65
2021/05/21 07:04:31;;;;;;;3.75;3.45;;;12.70;99.90;;;13.75;71.11;97378.50;5184372;28;20202;-65
2021/05/21 07:07:04;;;;;;;3.35;3.15;;;12.80;99.90;;;13.83;70.31;97383.06;5183092;28;20198;-65
2021/05/21 07:09:36;;;;;;;3.75;3.33;;;12.90;99.90;;;13.96;71.57;97387.81;5176194;28;20190;-65
2021/05/21 07:12:09;;;;;;;3.30;3.00;;;13.00;99.90;;;14.01;71.93;97380.28;5182389;28;20235;-65
2021/05/21 07:14:43;;;;;;;4.03;3.42;;;13.10;99.90;;;13.98;72.81;97381.03;5180416;28;20293;-65
2021/05/21 07:17:15;;;;;;;3.30;3.10;;;13.00;99.90;;;14.19;71.25;97371.53;5180455;28;20251;-65
2021/05/21 07:19:48;;;;;;;3.92;3.63;;;13.10;99.90;;;14.18;70.81;97366.31;5183718;28;20202;-65
2021/05/21 07:22:21;;;;;;;3.95;3.55;;;13.20;99.90;;;14.24;70.84;97366.53;5182338;28;20222;-66
2021/05/21 07:24:54;;;;;;;3.33;3.03;;;13.20;99.90;;;14.31;71.94;97363.38;5177006;28;20211;-65
2021/05/21 07:27:27;;;;;;;3.13;2.90;;;13.40;99.90;;;14.45;71.59;97358.69;5183023;28;20285;-65
2021/05/21 07:30:01;;;;;;;2.63;2.42;;;13.50;99.90;;;14.63;70.47;97358.47;5179969;28;20294;-65
2021/05/21 07:32:33;;;;;;;2.33;2.22;;;13.70;99.90;;;14.77;68.84;97356.34;5169931;28;20211;-66
